Time;durP1;ratioP1;P1;durP2;ratioP2;P2;SDS_P1;SDS_P2;PMS_P1;PMS_P2;Temp;Humidity;BMP_temperature;BMP_pressure;BME280_temperature;BME280_humidity;BME280_pressure;Samples;Min_cycle;Max_cycle;Signal;HPM_P1;HPM_P2
2023/03/29 00:07:03;;;;;;;17.53;3.93;;;;;;;;;;5688260;23;20047;-87
2023/03/29 00:09:49;;;;;;;9.70;3.70;;;;;;;;;;4919830;29;20089;-88
2023/03/29 00:14:56;;;;;;;8.40;3.60;;;;;;;;;;5329684;23;20056;-88
2023/03/29 01:33:02;;;;;;;13.50;3.85;;;;;;;;;;4901092;29;20086;-86
2023/03/29 01:35:56;;;;;;;14.20;5.03;;;;;;;;;;4881491;29;20041;-82
2023/03/29 01:38:43;;;;;;;9.80;3.40;;;;;;;;;;4860776;29;20029;-88
2023/03/29 01:41:11;;;;;;;13.75;3.40;;;;;;;;;;4901506;29;20048;-89
2023/03/29 01:56:50;;;;;;;14.63;4.00;;;;;;;;;;5785434;23;20281;-86
2023/03/29 01:59:23;;;;;;;11.65;3.72;;;;;;;;;;5478654;23;20064;-84
2023/03/29 02:01:51;;;;;;;12.98;4.05;;;;;;;;;;4940266;29;20052;-86
2023/03/29 02:04:33;;;;;;;22.50;4.18;;;;;;;;;;5148209;23;20104;-85
2023/03/29 02:07:07;;;;;;;10.85;3.80;;;;;;;;;;5467072;23;20043;-84
2023/03/29 02:09:43;;;;;;;15.00;3.75;;;;;;;;;;4942770;29;20020;-88
2023/03/29 02:27:50;;;;;;;15.60;3.80;;;;;;;;;;5324331;23;20039;-83
2023/03/29 02:44:29;;;;;;;15.52;3.83;;;;;;;;;;5919639;23;21144;-84
2023/03/29 03:13:34;;;;;;;11.15;3.45;;;;;;;;;;4064123;23;20318;-87
2023/03/29 03:21:52;;;;;;;18.27;4.50;;;;;;;;;;5087376;23;20066;-83
2023/03/29 03:29:35;;;;;;;13.20;4.35;;;;;;;;;;4957786;23;20043;-84
2023/03/29 03:42:32;;;;;;;15.52;4.10;;;;;;;;;;5732239;23;20103;-84
2023/03/29 03:47:37;;;;;;;9.15;3.10;;;;;;;;;;5735958;23;20032;-86
2023/03/29 03:50:04;;;;;;;19.02;5.20;;;;;;;;;;4931943;29;20033;-84
2023/03/29 04:00:24;;;;;;;12.07;3.22;;;;;;;;;;5693918;23;20059;-83
2023/03/29 04:02:56;;;;;;;9.60;2.78;;;;;;;;;;4954625;29;20023;-86
2023/03/29 04:10:34;;;;;;;12.98;3.85;;;;;;;;;;5581946;23;19938;-83
2023/03/29 04:13:04;;;;;;;9.80;2.70;;;;;;;;;;4928728;29;20016;-86
2023/03/29 04:15:37;;;;;;;7.57;2.75;;;;;;;;;;4940786;29;20023;-85
2023/03/29 04:18:06;;;;;;;10.57;3.05;;;;;;;;;;4940202;29;20024;-85
2023/03/29 04:20:37;;;;;;;9.68;3.25;;;;;;;;;;4939135;28;20069;-83
2023/03/29 04:23:06;;;;;;;7.00;2.40;;;;;;;;;;4936514;29;20016;-84
2023/03/29 04:25:41;;;;;;;10.98;2.88;;;;;;;;;;4940338;29;20013;-81
2023/03/29 04:28:16;;;;;;;11.07;2.70;;;;;;;;;;4940081;29;20028;-85
2023/03/29 04:30:42;;;;;;;6.15;2.80;;;;;;;;;;4939520;29;20088;-85
2023/03/29 04:33:11;;;;;;;10.95;3.53;;;;;;;;;;4939916;29;20046;-84
2023/03/29 04:35:47;;;;;;;7.78;2.70;;;;;;;;;;4939195;29;20040;-86
2023/03/29 04:38:13;;;;;;;9.60;2.40;;;;;;;;;;4922597;29;20027;-82
2023/03/29 04:40:48;;;;;;;7.40;2.40;;;;;;;;;;4939888;29;20040;-83
2023/03/29 04:43:18;;;;;;;6.53;2.38;;;;;;;;;;4937054;29;20008;-85
2023/03/29 04:45:51;;;;;;;10.85;2.38;;;;;;;;;;4939904;29;20008;-87
2023/03/29 05:24:39;;;;;;;2.17;1.70;;;;;;;;;;4543481;23;20040;-84
2023/03/29 05:27:13;;;;;;;3.20;1.90;;;;;;;;;;5374508;23;20040;-85
2023/03/29 05:34:51;;;;;;;2.55;1.48;;;;;;;;;;5980318;23;20075;-85
2023/03/29 05:37:18;;;;;;;2.20;1.45;;;;;;;;;;4904082;29;20032;-83
2023/03/29 05:57:56;;;;;;;3.25;2.25;;;;;;;;;;4697986;23;20086;-85
2023/03/29 06:05:35;;;;;;;2.80;1.95;;;;;;;;;;5684996;23;20033;-88
2023/03/29 06:10:37;;;;;;;6.90;2.05;;;;;;;;;;5140090;23;20040;-86
2023/03/29 06:13:10;;;;;;;2.92;1.88;;;;;;;;;;4935101;29;20027;-87
2023/03/29 06:15:39;;;;;;;5.30;2.28;;;;;;;;;;4937711;29;20036;-86
2023/03/29 06:20:57;;;;;;;;;;;;;;;;;;;;;
2023/03/29 06:26:18;;;;;;;2.38;1.50;;;;;;;;;;5514654;23;20058;-86
2023/03/29 06:28:51;;;;;;;2.22;1.42;;;;;;;;;;4930716;29;20012;-86
2023/03/29 06:31:18;;;;;;;2.10;1.50;;;;;;;;;;4956439;29;20051;-84
2023/03/29 06:33:48;;;;;;;4.50;1.70;;;;;;;;;;5431576;23;20040;-85
2023/03/29 06:36:23;;;;;;;7.00;1.80;;;;;;;;;;4932282;29;20045;-85
2023/03/29 07:17:43;;;;;;;2.47;1.60;;;;;;;;;;5133988;23;20052;-86
2023/03/29 07:20:13;;;;;;;2.60;1.63;;;;;;;;;;4933039;29;20399;-83
2023/03/29 07:22:49;;;;;;;7.00;1.60;;;;;;;;;;4950815;29;20046;-83
2023/03/29 07:33:03;;;;;;;3.30;1.40;;;;;;;;;;5232748;23;20056;-80
2023/03/29 07:35:41;;;;;;;;;;;;;;;;;;;;;
2023/03/29 07:38:10;;;;;;;5.07;1.65;;;;;;;;;;4933805;29;20056;-81
2023/03/29 07:40:52;;;;;;;4.05;1.83;;;;;;;;;;4912245;29;20037;-82
2023/03/29 07:48:47;;;;;;;1.75;1.58;;;;;;;;;;5519600;23;20044;-81
2023/03/29 08:02:49;;;;;;;1.40;1.30;;;;;;;;;;5625011;23;20031;-86
2023/03/29 08:19:21;;;;;;;1.00;1.00;;;;;;;;;;5910781;23;20141;-82
2023/03/29 08:24:23;;;;;;;1.30;1.23;;;;;;;;;;5259848;23;20052;-81
2023/03/29 08:26:54;;;;;;;1.00;1.00;;;;;;;;;;4926670;29;20055;-82
2023/03/29 08:31:57;;;;;;;1.10;0.95;;;;;;;;;;5528597;23;20040;-81
2023/03/29 08:34:23;;;;;;;1.60;1.50;;;;;;;;;;4932672;29;20044;-86
2023/03/29 08:36:51;;;;;;;3.67;1.70;;;;;;;;;;4928654;29;20019;-85
2023/03/29 08:39:17;;;;;;;1.13;1.10;;;;;;;;;;4936128;29;20035;-86
2023/03/29 08:42:10;;;;;;;1.20;1.20;;;;;;;;;;4924340;29;20051;-85
2023/03/29 08:44:36;;;;;;;1.10;1.10;;;;;;;;;;4943533;23;20056;-82
2023/03/29 08:47:13;;;;;;;1.05;1.05;;;;;;;;;;4931492;29;20012;-79
2023/03/29 08:49:41;;;;;;;3.63;1.48;;;;;;;;;;4922314;29;20044;-83
2023/03/29 08:52:15;;;;;;;2.60;1.17;;;;;;;;;;4926114;29;20030;-83
2023/03/29 08:54:45;;;;;;;1.67;1.52;;;;;;;;;;4925351;29;20048;-81
2023/03/29 08:57:17;;;;;;;2.72;1.45;;;;;;;;;;4894308;29;20124;-84
2023/03/29 08:59:43;;;;;;;1.42;1.33;;;;;;;;;;4996515;23;20060;-85
2023/03/29 09:02:17;;;;;;;3.72;1.73;;;;;;;;;;4910233;29;20080;-81
2023/03/29 09:04:44;;;;;;;4.13;1.42;;;;;;;;;;4916107;29;20080;-78
2023/03/29 09:07:11;;;;;;;1.60;1.40;;;;;;;;;;4932083;23;20060;-81
2023/03/29 09:09:41;;;;;;;1.52;1.30;;;;;;;;;;4909822;29;20067;-80
2023/03/29 09:12:19;;;;;;;4.70;1.50;;;;;;;;;;4911725;29;20096;-81
2023/03/29 09:14:52;;;;;;;2.25;1.20;;;;;;;;;;4907003;29;20104;-81
2023/03/29 09:17:28;;;;;;;2.03;1.65;;;;;;;;;;4910496;29;20044;-82
2023/03/29 09:20:13;;;;;;;1.38;1.27;;;;;;;;;;4908406;29;20129;-84
2023/03/29 09:22:42;;;;;;;1.30;1.20;;;;;;;;;;4915326;29;20056;-84
2023/03/29 09:25:51;;;;;;;1.23;1.10;;;;;;;;;;4904744;29;20032;-85
2023/03/29 09:28:18;;;;;;;1.15;1.15;;;;;;;;;;4915180;29;20111;-79
2023/03/29 09:30:56;;;;;;;1.30;1.20;;;;;;;;;;4908179;29;20044;-84
2023/03/29 09:33:28;;;;;;;1.10;1.10;;;;;;;;;;4912122;29;20100;-80
2023/03/29 09:36:00;;;;;;;2.28;1.20;;;;;;;;;;4910825;29;20036;-81
2023/03/29 09:38:27;;;;;;;3.38;1.60;;;;;;;;;;4918664;29;20072;-78
2023/03/29 09:40:55;;;;;;;2.47;1.30;;;;;;;;;;4912001;29;20044;-78
2023/03/29 09:43:32;;;;;;;1.10;1.10;;;;;;;;;;4914738;29;20033;-78
2023/03/29 09:46:02;;;;;;;1.23;1.08;;;;;;;;;;4915912;29;20047;-79
2023/03/29 09:48:31;;;;;;;2.78;1.27;;;;;;;;;;5004609;23;20071;-80
2023/03/29 09:50:57;;;;;;;1.38;1.27;;;;;;;;;;4938721;29;20655;-77
2023/03/29 09:53:24;;;;;;;1.42;1.33;;;;;;;;;;4936417;29;20036;-78
2023/03/29 09:55:50;;;;;;;1.17;1.00;;;;;;;;;;5107586;23;20048;-79
2023/03/29 10:00:54;;;;;;;2.45;1.65;;;;;;;;;;5558353;23;20047;-79
2023/03/29 10:03:21;;;;;;;0.93;0.93;;;;;;;;;;4916725;29;20043;-79
2023/03/29 10:13:45;;;;;;;4.10;1.05;;;;;;;;;;5109251;23;20064;-85
2023/03/29 10:16:22;;;;;;;1.08;1.08;;;;;;;;;;4946922;29;20020;-88
2023/03/29 10:18:56;;;;;;;1.33;1.20;;;;;;;;;;4946897;28;20051;-81
2023/03/29 10:21:28;;;;;;;1.05;1.05;;;;;;;;;;4942168;29;20032;-84
2023/03/29 10:24:00;;;;;;;1.45;1.00;;;;;;;;;;4941117;29;20032;-82
2023/03/29 10:26:35;;;;;;;0.95;0.95;;;;;;;;;;4940228;29;20087;-86
2023/03/29 10:29:06;;;;;;;1.00;1.00;;;;;;;;;;5236777;23;20032;-83
2023/03/29 10:31:40;;;;;;;1.10;1.10;;;;;;;;;;4934190;29;20004;-84
2023/03/29 10:34:07;;;;;;;1.00;1.00;;;;;;;;;;5107308;23;20051;-78
2023/03/29 10:36:34;;;;;;;1.05;1.05;;;;;;;;;;4929186;29;20040;-81
2023/03/29 10:39:13;;;;;;;1.00;1.00;;;;;;;;;;4925640;29;20092;-80
2023/03/29 10:41:39;;;;;;;1.08;1.08;;;;;;;;;;4924353;29;20233;-79
2023/03/29 10:44:05;;;;;;;1.05;1.05;;;;;;;;;;4922022;29;20036;-82
2023/03/29 10:46:35;;;;;;;0.90;0.90;;;;;;;;;;4916149;29;20468;-81
2023/03/29 10:49:09;;;;;;;1.10;1.10;;;;;;;;;;4926843;29;20039;-84
2023/03/29 10:51:36;;;;;;;0.95;0.95;;;;;;;;;;4922283;29;20130;-82
2023/03/29 10:54:04;;;;;;;1.23;1.13;;;;;;;;;;4943513;29;20055;-81
2023/03/29 10:57:02;;;;;;;2.83;1.17;;;;;;;;;;4941275;29;20024;-81
2023/03/29 10:59:30;;;;;;;1.27;1.17;;;;;;;;;;4884487;29;20044;-82
2023/03/29 11:02:14;;;;;;;1.73;1.30;;;;;;;;;;4945906;29;20027;-82
2023/03/29 11:04:43;;;;;;;1.50;1.38;;;;;;;;;;4924612;29;20028;-86
2023/03/29 11:07:16;;;;;;;2.15;1.50;;;;;;;;;;4942282;29;20034;-82
2023/03/29 11:09:48;;;;;;;2.00;1.58;;;;;;;;;;4917149;29;20032;-82
2023/03/29 11:12:20;;;;;;;1.70;1.60;;;;;;;;;;4940193;29;20035;-81
2023/03/29 11:14:49;;;;;;;2.53;1.48;;;;;;;;;;4916163;29;20130;-83
2023/03/29 11:17:15;;;;;;;2.25;1.50;;;;;;;;;;4922424;29;20027;-81
2023/03/29 11:19:47;;;;;;;1.70;1.60;;;;;;;;;;4934292;29;20023;-81
2023/03/29 11:22:22;;;;;;;1.83;1.52;;;;;;;;;;4918263;29;20031;-82
2023/03/29 11:24:48;;;;;;;;;;;;;;;;;;4937055;29;20130;-85
2023/03/29 11:27:26;;;;;;;1.83;1.70;;;;;;;;;;4932967;29;19919;-83
2023/03/29 11:30:10;;;;;;;1.75;1.60;;;;;;;;;;4917338;29;20035;-84
2023/03/29 11:32:56;;;;;;;1.98;1.73;;;;;;;;;;4915431;29;20055;-80
2023/03/29 11:35:25;;;;;;;2.85;2.00;;;;;;;;;;4937933;29;20090;-80
2023/03/29 11:37:55;;;;;;;4.65;2.83;;;;;;;;;;4913326;29;20573;-81
2023/03/29 11:40:34;;;;;;;2.28;1.88;;;;;;;;;;4918353;29;20028;-84
2023/03/29 11:43:01;;;;;;;2.38;1.60;;;;;;;;;;4916235;29;20114;-81
2023/03/29 11:45:38;;;;;;;5.70;2.08;;;;;;;;;;4936315;29;20092;-81
2023/03/29 11:48:06;;;;;;;2.55;1.90;;;;;;;;;;4916825;29;20542;-85
2023/03/29 11:50:41;;;;;;;3.60;2.40;;;;;;;;;;4931666;29;21001;-85
2023/03/29 11:53:21;;;;;;;4.47;2.42;;;;;;;;;;4900429;29;20040;-84
2023/03/29 11:55:48;;;;;;;2.83;1.70;;;;;;;;;;4930971;29;20055;-83
2023/03/29 11:58:41;;;;;;;6.90;2.80;;;;;;;;;;4912967;29;20031;-85
2023/03/29 12:01:12;;;;;;;6.63;2.40;;;;;;;;;;4930919;29;20039;-82
2023/03/29 12:03:39;;;;;;;4.20;1.90;;;;;;;;;;4932851;29;20035;-85
2023/03/29 12:06:06;;;;;;;7.88;3.17;;;;;;;;;;4934371;29;20031;-84
2023/03/29 12:08:35;;;;;;;8.88;3.20;;;;;;;;;;4913552;29;20536;-84
2023/03/29 12:11:06;;;;;;;3.53;2.22;;;;;;;;;;4916267;29;20040;-83
2023/03/29 12:13:52;;;;;;;3.60;2.20;;;;;;;;;;4914076;29;20039;-82
2023/03/29 12:16:25;;;;;;;4.25;2.53;;;;;;;;;;4915375;29;20032;-80
2023/03/29 12:18:53;;;;;;;5.07;2.47;;;;;;;;;;4914112;29;20063;-82
2023/03/29 12:21:23;;;;;;;5.90;2.40;;;;;;;;;;4914592;29;20035;-81
2023/03/29 12:23:49;;;;;;;12.32;3.08;;;;;;;;;;4927544;29;20036;-80
2023/03/29 12:26:35;;;;;;;8.38;3.03;;;;;;;;;;4932329;29;20042;-83
2023/03/29 12:29:09;;;;;;;6.00;3.28;;;;;;;;;;4912324;29;20057;-84
2023/03/29 12:31:44;;;;;;;6.13;2.55;;;;;;;;;;4911087;29;20036;-81
2023/03/29 12:34:16;;;;;;;5.25;2.70;;;;;;;;;;4926974;29;20046;-80
2023/03/29 12:36:48;;;;;;;10.85;3.28;;;;;;;;;;4930910;29;20109;-82
2023/03/29 12:39:16;;;;;;;8.43;2.63;;;;;;;;;;4913701;29;20024;-82
2023/03/29 12:41:47;;;;;;;7.35;2.55;;;;;;;;;;4929668;29;20487;-82
2023/03/29 12:44:15;;;;;;;5.78;2.53;;;;;;;;;;4931870;29;20023;-83
2023/03/29 12:46:41;;;;;;;6.07;2.53;;;;;;;;;;4913325;29;20032;-83
2023/03/29 12:49:10;;;;;;;9.63;3.28;;;;;;;;;;4915135;29;20087;-82
2023/03/29 12:51:39;;;;;;;8.68;3.55;;;;;;;;;;4914667;29;20058;-84
2023/03/29 12:54:08;;;;;;;8.40;2.80;;;;;;;;;;4912250;29;20124;-82
2023/03/29 12:56:41;;;;;;;6.90;3.17;;;;;;;;;;4925551;29;20061;-82
2023/03/29 12:59:11;;;;;;;12.07;3.65;;;;;;;;;;4910869;29;20023;-82
2023/03/29 13:01:40;;;;;;;9.18;3.38;;;;;;;;;;4907788;29;20130;-82
2023/03/29 13:04:16;;;;;;;10.98;3.63;;;;;;;;;;4910172;29;20366;-81
2023/03/29 13:06:48;;;;;;;9.15;3.42;;;;;;;;;;4909367;29;20122;-84
2023/03/29 13:09:20;;;;;;;9.52;3.22;;;;;;;;;;4923573;29;20035;-84
2023/03/29 13:11:54;;;;;;;6.75;3.35;;;;;;;;;;4909204;29;20398;-82
2023/03/29 13:14:23;;;;;;;9.85;3.38;;;;;;;;;;4921754;29;20027;-81
2023/03/29 13:16:49;;;;;;;11.10;3.50;;;;;;;;;;4905424;29;20802;-81
2023/03/29 13:19:16;;;;;;;14.85;4.80;;;;;;;;;;4910410;29;20031;-81
2023/03/29 13:22:01;;;;;;;12.60;4.43;;;;;;;;;;4908568;29;20489;-81
2023/03/29 13:24:46;;;;;;;16.65;4.63;;;;;;;;;;4922712;29;20039;-82
2023/03/29 13:27:12;;;;;;;12.77;4.22;;;;;;;;;;4925416;29;20039;-82
2023/03/29 13:29:50;;;;;;;12.57;4.32;;;;;;;;;;4931410;29;20027;-82
2023/03/29 13:32:24;;;;;;;11.93;3.88;;;;;;;;;;4914734;29;20537;-82
2023/03/29 13:34:53;;;;;;;8.55;4.18;;;;;;;;;;4907828;29;20102;-82
2023/03/29 13:37:38;;;;;;;10.38;3.80;;;;;;;;;;4927496;29;20032;-81
2023/03/29 13:40:25;;;;;;;14.20;4.63;;;;;;;;;;4928204;29;20150;-82
2023/03/29 13:42:56;;;;;;;14.27;4.57;;;;;;;;;;4930875;29;20032;-82
2023/03/29 13:45:25;;;;;;;12.48;3.88;;;;;;;;;;4915484;29;20150;-82
2023/03/29 13:48:00;;;;;;;12.93;4.30;;;;;;;;;;4929671;29;20107;-82
2023/03/29 13:50:34;;;;;;;15.23;4.10;;;;;;;;;;4932841;29;20032;-82
2023/03/29 13:53:00;;;;;;;19.10;5.05;;;;;;;;;;4919004;29;20039;-83
2023/03/29 13:55:31;;;;;;;13.43;3.63;;;;;;;;;;4916777;29;20074;-83
2023/03/29 13:58:09;;;;;;;16.48;4.40;;;;;;;;;;4917410;29;20127;-85
2023/03/29 14:00:39;;;;;;;15.20;4.20;;;;;;;;;;4922040;29;20036;-83
2023/03/29 14:03:09;;;;;;;17.08;4.45;;;;;;;;;;4922602;29;20035;-83
2023/03/29 14:05:37;;;;;;;14.90;4.82;;;;;;;;;;4918457;29;20707;-81
2023/03/29 14:08:23;;;;;;;13.68;4.65;;;;;;;;;;4919500;29;20038;-81
2023/03/29 14:10:50;;;;;;;16.60;4.72;;;;;;;;;;4918425;29;20134;-81
2023/03/29 14:13:17;;;;;;;15.25;5.25;;;;;;;;;;4917726;29;20118;-83
2023/03/29 14:15:44;;;;;;;15.77;4.40;;;;;;;;;;4923097;29;20036;-84
2023/03/29 14:18:11;;;;;;;19.55;5.43;;;;;;;;;;4923485;29;20034;-82
2023/03/29 14:20:37;;;;;;;13.73;4.50;;;;;;;;;;4920147;29;20036;-86
2023/03/29 14:23:10;;;;;;;11.40;4.30;;;;;;;;;;4919905;29;20026;-83
2023/03/29 14:25:38;;;;;;;19.58;4.60;;;;;;;;;;4934591;29;20114;-83
2023/03/29 14:28:12;;;;;;;14.65;4.93;;;;;;;;;;4913701;29;20790;-84
2023/03/29 14:30:45;;;;;;;11.15;4.40;;;;;;;;;;4917099;29;20040;-82
2023/03/29 14:33:13;;;;;;;16.92;4.72;;;;;;;;;;4913817;29;20032;-83
2023/03/29 14:35:39;;;;;;;19.30;5.80;;;;;;;;;;4919674;29;20036;-86
2023/03/29 14:38:06;;;;;;;15.18;4.72;;;;;;;;;;4917449;29;20039;-85
2023/03/29 14:40:33;;;;;;;15.18;4.65;;;;;;;;;;4916887;29;20031;-83
2023/03/29 14:43:04;;;;;;;19.38;4.28;;;;;;;;;;4934714;29;20047;-83
2023/03/29 14:45:31;;;;;;;15.00;4.97;;;;;;;;;;4918048;29;20059;-83
2023/03/29 14:47:57;;;;;;;14.40;5.50;;;;;;;;;;4916490;29;20020;-83
2023/03/29 14:50:28;;;;;;;15.13;3.97;;;;;;;;;;4917693;29;20545;-82
2023/03/29 14:52:56;;;;;;;14.55;4.47;;;;;;;;;;4914150;29;20614;-82
2023/03/29 14:55:22;;;;;;;13.98;3.97;;;;;;;;;;4916470;29;20150;-83
2023/03/29 14:57:49;;;;;;;11.93;4.28;;;;;;;;;;4917132;29;20051;-83
2023/03/29 15:00:16;;;;;;;12.52;3.67;;;;;;;;;;4918449;29;20042;-82
2023/03/29 15:03:02;;;;;;;15.43;4.93;;;;;;;;;;4933658;29;20924;-82
2023/03/29 15:05:32;;;;;;;10.85;3.90;;;;;;;;;;4915563;29;20171;-82
2023/03/29 15:07:58;;;;;;;17.70;4.93;;;;;;;;;;4934648;29;20035;-82
2023/03/29 15:10:25;;;;;;;18.25;5.30;;;;;;;;;;4916723;29;20051;-83
2023/03/29 15:12:53;;;;;;;15.48;5.15;;;;;;;;;;4918621;29;20096;-83
2023/03/29 15:15:20;;;;;;;17.13;5.15;;;;;;;;;;4934793;29;20122;-83
2023/03/29 15:17:46;;;;;;;17.40;5.07;;;;;;;;;;4919479;29;20046;-84
2023/03/29 15:20:20;;;;;;;16.55;5.60;;;;;;;;;;4917399;29;20500;-83
2023/03/29 15:22:58;;;;;;;11.20;4.25;;;;;;;;;;4936254;29;20199;-85
2023/03/29 15:25:26;;;;;;;14.07;5.03;;;;;;;;;;4921592;29;20039;-83
2023/03/29 15:27:55;;;;;;;15.70;5.07;;;;;;;;;;4937735;29;20031;-83
2023/03/29 15:30:29;;;;;;;25.25;6.05;;;;;;;;;;4936450;29;20087;-82
2023/03/29 15:32:55;;;;;;;19.60;5.40;;;;;;;;;;4915999;29;20122;-84
2023/03/29 15:35:25;;;;;;;13.77;4.60;;;;;;;;;;4917327;29;20036;-85
2023/03/29 15:37:52;;;;;;;18.98;5.60;;;;;;;;;;4918181;29;20567;-84
2023/03/29 15:40:20;;;;;;;18.13;5.07;;;;;;;;;;4920215;29;20028;-84
2023/03/29 15:42:47;;;;;;;22.73;6.10;;;;;;;;;;4915393;29;20028;-83
2023/03/29 15:45:17;;;;;;;16.98;4.63;;;;;;;;;;4916698;29;20429;-85
2023/03/29 15:47:43;;;;;;;23.08;5.18;;;;;;;;;;4916187;29;20031;-83
2023/03/29 15:50:10;;;;;;;14.25;5.30;;;;;;;;;;4916694;29;20511;-83
2023/03/29 15:52:37;;;;;;;23.08;6.47;;;;;;;;;;4914080;29;20051;-83
2023/03/29 15:55:03;;;;;;;23.60;5.10;;;;;;;;;;4913902;29;20028;-84
2023/03/29 15:57:30;;;;;;;20.27;6.63;;;;;;;;;;4920067;29;20078;-85
2023/03/29 15:59:57;;;;;;;19.90;6.25;;;;;;;;;;4920756;29;20515;-85
2023/03/29 16:02:24;;;;;;;18.67;5.20;;;;;;;;;;4933722;29;20537;-85
2023/03/29 16:04:50;;;;;;;17.90;4.95;;;;;;;;;;4919617;29;20135;-85
2023/03/29 16:07:17;;;;;;;18.15;5.28;;;;;;;;;;4936051;29;20027;-85
2023/03/29 16:09:44;;;;;;;22.13;5.13;;;;;;;;;;4916613;29;20485;-83
2023/03/29 16:12:10;;;;;;;18.48;5.22;;;;;;;;;;4932681;29;20090;-82
2023/03/29 16:14:37;;;;;;;11.07;4.57;;;;;;;;;;4917973;29;20059;-81
2023/03/29 16:17:03;;;;;;;22.20;5.85;;;;;;;;;;4918443;29;20373;-82
2023/03/29 16:19:30;;;;;;;18.10;6.15;;;;;;;;;;4913823;29;20020;-82
2023/03/29 16:21:56;;;;;;;23.45;6.03;;;;;;;;;;4914431;29;20024;-82
2023/03/29 16:24:26;;;;;;;22.92;5.22;;;;;;;;;;4917244;29;20413;-82
2023/03/29 16:26:52;;;;;;;24.80;6.53;;;;;;;;;;4917512;29;20028;-83
2023/03/29 16:29:18;;;;;;;17.17;4.90;;;;;;;;;;4916407;29;20042;-84
2023/03/29 16:31:45;;;;;;;30.35;8.93;;;;;;;;;;4918027;29;20027;-83
2023/03/29 16:34:12;;;;;;;21.83;5.70;;;;;;;;;;4932368;29;20273;-82
2023/03/29 16:36:39;;;;;;;19.17;4.95;;;;;;;;;;4932054;29;20687;-81
2023/03/29 16:39:05;;;;;;;20.92;6.78;;;;;;;;;;4916251;29;20043;-84
2023/03/29 16:41:32;;;;;;;15.88;6.18;;;;;;;;;;4903021;29;20032;-84
2023/03/29 16:43:58;;;;;;;17.70;5.18;;;;;;;;;;4933315;29;20019;-84
2023/03/29 16:46:25;;;;;;;21.08;6.13;;;;;;;;;;4930851;29;20032;-84
2023/03/29 16:48:52;;;;;;;21.50;5.82;;;;;;;;;;4918414;29;20047;-85
2023/03/29 16:51:19;;;;;;;16.42;4.60;;;;;;;;;;4917408;29;20488;-85
2023/03/29 16:53:46;;;;;;;20.63;5.43;;;;;;;;;;4916009;29;20036;-86
2023/03/29 16:56:13;;;;;;;21.70;5.15;;;;;;;;;;4918286;29;20007;-88
2023/03/29 16:58:39;;;;;;;18.90;4.53;;;;;;;;;;4918562;29;20044;-85
2023/03/29 17:01:12;;;;;;;20.95;5.70;;;;;;;;;;4919862;29;20036;-85
2023/03/29 17:03:38;;;;;;;17.70;5.75;;;;;;;;;;4917263;29;20032;-86
2023/03/29 17:06:05;;;;;;;19.20;6.68;;;;;;;;;;4937705;29;20067;-85
2023/03/29 17:08:31;;;;;;;20.38;5.18;;;;;;;;;;4915296;29;20012;-86
2023/03/29 17:10:58;;;;;;;14.25;4.70;;;;;;;;;;4919296;29;20040;-85
2023/03/29 17:13:24;;;;;;;20.90;5.78;;;;;;;;;;4918857;29;20031;-86
2023/03/29 17:15:51;;;;;;;24.00;6.05;;;;;;;;;;4920156;29;20012;-83
2023/03/29 17:18:20;;;;;;;17.70;7.03;;;;;;;;;;4903539;29;20104;-86
2023/03/29 17:20:46;;;;;;;18.77;6.53;;;;;;;;;;4935989;29;20027;-85
2023/03/29 17:23:12;;;;;;;15.95;4.97;;;;;;;;;;4918601;29;20060;-89
2023/03/29 17:25:38;;;;;;;18.95;5.70;;;;;;;;;;4922937;29;20032;-87
2023/03/29 17:28:04;;;;;;;18.77;6.13;;;;;;;;;;4918206;29;20391;-84
2023/03/29 17:30:33;;;;;;;16.63;5.28;;;;;;;;;;4919398;29;20075;-89
2023/03/29 17:32:59;;;;;;;19.08;5.35;;;;;;;;;;4932839;29;20019;-85
2023/03/29 17:35:26;;;;;;;17.95;5.32;;;;;;;;;;4919597;29;20079;-85
2023/03/29 17:37:53;;;;;;;19.77;6.25;;;;;;;;;;4920614;29;20035;-79
2023/03/29 17:40:21;;;;;;;23.13;5.53;;;;;;;;;;4933911;29;20016;-86
2023/03/29 17:42:47;;;;;;;21.08;5.72;;;;;;;;;;4935652;29;20086;-83
2023/03/29 17:45:15;;;;;;;19.98;7.13;;;;;;;;;;4918150;29;20032;-84
2023/03/29 17:47:41;;;;;;;18.05;5.93;;;;;;;;;;4918135;29;20453;-85
2023/03/29 17:50:09;;;;;;;16.25;4.03;;;;;;;;;;4933962;29;20031;-82
2023/03/29 17:52:35;;;;;;;20.08;5.40;;;;;;;;;;4929973;29;20485;-80
2023/03/29 17:55:01;;;;;;;23.48;5.97;;;;;;;;;;4915801;29;20982;-84
2023/03/29 17:57:27;;;;;;;18.02;5.13;;;;;;;;;;4935497;29;20058;-83
2023/03/29 17:59:54;;;;;;;24.27;5.55;;;;;;;;;;4934500;29;20118;-83
2023/03/29 18:02:22;;;;;;;19.10;5.07;;;;;;;;;;4920235;29;20055;-90
2023/03/29 18:04:48;;;;;;;23.50;4.82;;;;;;;;;;4940206;29;20035;-85
2023/03/29 18:07:14;;;;;;;23.63;7.00;;;;;;;;;;4923074;29;20032;-82
2023/03/29 18:09:44;;;;;;;27.05;8.15;;;;;;;;;;4919911;29;20031;-90
2023/03/29 18:12:10;;;;;;;25.55;8.25;;;;;;;;;;4922308;29;20485;-88
2023/03/29 18:14:36;;;;;;;23.20;6.82;;;;;;;;;;4941048;29;20031;-89
2023/03/29 18:17:04;;;;;;;23.77;7.22;;;;;;;;;;4941484;29;20492;-87
2023/03/29 18:19:30;;;;;;;21.15;5.43;;;;;;;;;;4930038;29;20083;-87
2023/03/29 18:21:56;;;;;;;18.75;5.78;;;;;;;;;;4925676;29;20068;-83
2023/03/29 18:24:22;;;;;;;15.90;5.05;;;;;;;;;;4936752;29;20036;-84
2023/03/29 18:26:49;;;;;;;18.48;6.53;;;;;;;;;;4916391;29;20113;-82
2023/03/29 18:29:16;;;;;;;17.38;5.45;;;;;;;;;;4925511;29;20043;-87
2023/03/29 18:31:42;;;;;;;14.52;4.82;;;;;;;;;;4918820;29;20131;-82
2023/03/29 18:34:08;;;;;;;19.88;6.57;;;;;;;;;;4920461;29;20132;-81
2023/03/29 18:36:35;;;;;;;17.25;6.15;;;;;;;;;;4938535;29;20035;-82
2023/03/29 18:39:08;;;;;;;24.50;8.32;;;;;;;;;;4922996;29;20028;-82
2023/03/29 18:41:36;;;;;;;18.58;7.40;;;;;;;;;;4920126;29;20039;-84
2023/03/29 18:44:03;;;;;;;23.67;7.00;;;;;;;;;;4925767;29;20016;-83
2023/03/29 18:46:30;;;;;;;23.40;6.72;;;;;;;;;;4927358;29;20478;-81
2023/03/29 18:48:56;;;;;;;23.75;8.13;;;;;;;;;;4935904;29;20032;-82
2023/03/29 18:51:29;;;;;;;16.75;6.35;;;;;;;;;;4931963;29;20034;-85
2023/03/29 18:54:15;;;;;;;19.98;6.30;;;;;;;;;;4944828;29;20055;-87
2023/03/29 18:56:42;;;;;;;16.60;5.63;;;;;;;;;;4935716;29;20042;-85
2023/03/29 18:59:09;;;;;;;35.50;7.07;;;;;;;;;;4946830;29;20291;-85
2023/03/29 19:01:35;;;;;;;15.60;4.43;;;;;;;;;;4926279;29;20040;-81
2023/03/29 19:04:03;;;;;;;11.90;4.32;;;;;;;;;;4929681;29;20031;-83
2023/03/29 19:06:30;;;;;;;17.48;6.35;;;;;;;;;;4930644;29;20055;-81
2023/03/29 19:09:00;;;;;;;20.33;5.90;;;;;;;;;;4930600;29;20043;-81
2023/03/29 19:11:39;;;;;;;19.05;5.95;;;;;;;;;;4927556;29;20039;-88
2023/03/29 19:14:07;;;;;;;17.38;5.55;;;;;;;;;;4926651;29;20055;-80
2023/03/29 19:16:34;;;;;;;21.75;7.50;;;;;;;;;;4944910;29;20031;-80
2023/03/29 19:19:04;;;;;;;16.15;6.30;;;;;;;;;;4940977;29;20043;-82
2023/03/29 19:21:31;;;;;;;51.92;28.85;;;;;;;;;;4939257;29;20035;-81
2023/03/29 19:24:03;;;;;;;61.92;29.48;;;;;;;;;;4921116;29;20039;-83
2023/03/29 19:26:32;;;;;;;37.55;24.55;;;;;;;;;;4952386;29;20023;-85
2023/03/29 19:28:59;;;;;;;24.23;8.10;;;;;;;;;;4928105;29;20035;-84
2023/03/29 19:31:27;;;;;;;22.70;7.25;;;;;;;;;;4932367;29;20059;-86
2023/03/29 19:33:56;;;;;;;21.95;7.85;;;;;;;;;;4943909;29;20052;-84
2023/03/29 19:36:22;;;;;;;21.17;6.90;;;;;;;;;;4928617;29;20028;-82
2023/03/29 19:38:49;;;;;;;35.35;22.70;;;;;;;;;;4944541;29;20032;-86
2023/03/29 19:41:15;;;;;;;28.17;7.10;;;;;;;;;;4944318;29;20094;-84
2023/03/29 19:43:41;;;;;;;19.65;5.88;;;;;;;;;;4931386;29;20019;-84
2023/03/29 19:46:12;;;;;;;17.05;5.97;;;;;;;;;;4945267;29;20024;-82
2023/03/29 19:48:39;;;;;;;18.80;5.38;;;;;;;;;;4939449;29;20034;-83
2023/03/29 19:51:05;;;;;;;18.38;5.95;;;;;;;;;;4920776;29;20374;-83
2023/03/29 19:53:32;;;;;;;19.83;5.10;;;;;;;;;;4925058;29;20036;-83
2023/03/29 19:56:00;;;;;;;22.38;5.97;;;;;;;;;;4937121;29;20027;-85
2023/03/29 19:58:28;;;;;;;25.15;7.68;;;;;;;;;;4929185;29;20130;-82
2023/03/29 20:00:58;;;;;;;19.80;5.22;;;;;;;;;;4945890;29;20039;-83
2023/03/29 20:03:27;;;;;;;18.92;5.80;;;;;;;;;;4926657;29;20115;-82
2023/03/29 20:05:55;;;;;;;20.20;5.97;;;;;;;;;;4943577;29;20481;-81
2023/03/29 20:08:23;;;;;;;22.02;6.07;;;;;;;;;;4940958;29;20031;-82
2023/03/29 20:10:56;;;;;;;23.85;6.50;;;;;;;;;;4936942;29;20054;-81
2023/03/29 20:13:23;;;;;;;16.33;5.35;;;;;;;;;;4943508;29;20032;-82
2023/03/29 20:15:51;;;;;;;13.63;6.45;;;;;;;;;;4927601;29;20478;-82
2023/03/29 20:18:17;;;;;;;22.08;5.07;;;;;;;;;;4918205;29;20047;-81
2023/03/29 20:20:43;;;;;;;16.63;5.38;;;;;;;;;;4945099;29;20028;-82
2023/03/29 20:23:14;;;;;;;20.80;4.93;;;;;;;;;;4928390;29;20032;-81
2023/03/29 20:25:41;;;;;;;21.88;5.05;;;;;;;;;;4939396;29;20087;-81
2023/03/29 20:28:07;;;;;;;18.30;5.47;;;;;;;;;;4925621;29;20102;-83
2023/03/29 20:30:35;;;;;;;53.85;26.70;;;;;;;;;;4912286;29;20031;-82
2023/03/29 20:33:02;;;;;;;29.23;8.95;;;;;;;;;;4940051;29;20035;-82
2023/03/29 20:35:31;;;;;;;16.10;5.55;;;;;;;;;;4942735;29;20052;-82
2023/03/29 20:37:58;;;;;;;32.05;8.43;;;;;;;;;;4921717;29;20024;-84
2023/03/29 20:40:24;;;;;;;30.20;9.95;;;;;;;;;;4933197;29;20028;-82
2023/03/29 20:42:53;;;;;;;19.15;6.97;;;;;;;;;;4943156;29;20381;-83
2023/03/29 20:45:19;;;;;;;17.27;6.03;;;;;;;;;;4935790;29;20027;-83
2023/03/29 20:47:49;;;;;;;16.42;6.22;;;;;;;;;;4927515;29;20028;-84
2023/03/29 20:50:19;;;;;;;27.70;6.28;;;;;;;;;;4915095;29;20031;-83
2023/03/29 20:52:47;;;;;;;29.48;6.60;;;;;;;;;;4911127;29;20036;-83